首页
METAR-TAF:

METAR-TAF

机场 :

喬治·布什洲際機場

休斯敦, 得克萨斯州, 美国

纬度: 29-59-33N, 经度: 095-21-50W, 海拔: 29米

当前天气观测

该预报发布于29分钟前的07:53 UTC
风速6节,风向
温度 9°C
湿度 87%
气压 1023 hPa
能見度: 16.1公里
少量云层高于6000英尺
散云层高于8000英尺
多云层高于18000英尺

METAR: KIAH 200753Z 01006KT 10SM FEW060 SCT080 BKN180 09/07 A3022 RMK AO2 SLP235 T00890072

时间: 02:22 (08:22 UTC)

预报

该预报发布于2小时和44分钟前的05:38 UTC
预报有效从20日的 06点(UTC)到 21日的 12点(UTC)
风速7节,风向
能見度: 10公里
散云层高于2900英尺
多云层高于9000英尺
阴天层高于19000英尺
短暂存在
从 20日的 06点(UTC)到 20日的 08点(UTC)
多云层高于2700英尺
阴天层高于6000英尺
从 20日的 1000点(UTC)
风速6节,风向
能見度: 10公里
阴天层高于6000英尺
从 20日的 1300点(UTC)
风速10节,风向
能見度: 10公里
天空无云
从 21日的 0100点(UTC)
风速4节,风向北转东北
能見度: 10公里
散云层高于25000英尺

TAF: KIAH 200538Z 2006/2112 35007KT P6SM SCT029 BKN090 OVC190 TEMPO 2006/2008 BKN027 OVC060 FM201000 36006KT P6SM OVC060 FM201300 01010KT P6SM SKC FM210100 03004KT P6SM SCT250

超过4000个机场的气象观测和天气预报(METAR&TAF报告)。

可查询的气象台以黄色和红色小点在地图上表示。

将鼠标移到小点上方,可查看气象台名称。

然后点击查看天气观测和预报。

如需切换地图:点击带黑十字的绿色按钮放大地图;点击带横线的绿色按钮缩小地图;或者点击绿色箭头查看邻近地区的地图。


METAR-TAF: